Josephine Anne — WDD9858 — position and weather

sailwx.info

Track history (hours):
 
Tides and Currents Weather Stations Pressure Air Temp Water Temp Dewpoint Dewpoint Depression Visibility Wind Speed Wind Dir Waves Ship Positions

Josephine Anne

Owner: E.N. Bisso & Son, Inc., Metairie, LA. More information available from US FCC via Universal Licensing System and Coast Guard Vessel Documentation Center.

Last reported at 2015-May-28 04:29 UTC. Time now 2015-May-28 08:06 UTC.
Position N 29°56' W 090°08'.

Length 29 m; draft 4.3 m.

Type: Tug. MMSI: 367317270.

Date/timePositionNaut miles runAvg speedWind from/ knotsBaromVisibWave heightAir tempDewpointWater temp
2015-May-28 04:29N 29°56' W 090°08'1 0.8
2015-May-28 03:19N 29°55' W 090°08'2 2.4
2015-May-28 02:20N 29°55' W 090°06'2 2.9
2015-May-28 01:30N 29°56' W 090°04'2 1.7
2015-May-28 00:26N 29°58' W 090°02'0 0.0
2015-May-27 23:30N 29°58' W 090°02'0 0.0
2015-May-27 22:30N 29°58' W 090°02'0 0.0
2015-May-27 21:33N 29°58' W 090°02'0 0.0
2015-May-27 20:30N 29°58' W 090°02'5 1.1
2015-May-27 16:26N 29°55' W 090°06'1 0.1
2015-May-27 08:03N 29°55' W 090°05'3 0.3
2015-May-26 22:23N 29°56' W 090°08'0 0.4
2015-May-26 21:29N 29°55' W 090°08'1 0.6
2015-May-26 19:33N 29°56' W 090°09'  
Track history (hours):
 
Tides and Currents Weather Stations Pressure Air Temp Water Temp Dewpoint Dewpoint Depression Visibility Wind Speed Wind Dir Waves Ship Positions

Josephine Anne

Owner: E.N. Bisso & Son, Inc., Metairie, LA. More information available from US FCC via Universal Licensing System and Coast Guard Vessel Documentation Center.

Last reported at 2015-May-28 04:29 UTC. Time now 2015-May-28 08:06 UTC.
Position N 29°56' W 090°08'.

Length 29 m; draft 4.3 m.

Type: Tug. MMSI: 367317270.

Date/timePositionNaut miles runAvg speedWind from/ knotsBaromVisibWave heightAir tempDewpointWater temp
2015-May-28 04:29N 29°56' W 090°08'1 0.8
2015-May-28 03:19N 29°55' W 090°08'2 2.4
2015-May-28 02:20N 29°55' W 090°06'2 2.9
2015-May-28 01:30N 29°56' W 090°04'2 1.7
2015-May-28 00:26N 29°58' W 090°02'0 0.0
2015-May-27 23:30N 29°58' W 090°02'0 0.0
2015-May-27 22:30N 29°58' W 090°02'0 0.0
2015-May-27 21:33N 29°58' W 090°02'0 0.0
2015-May-27 20:30N 29°58' W 090°02'5 1.1
2015-May-27 16:26N 29°55' W 090°06'1 0.1
2015-May-27 08:03N 29°55' W 090°05'3 0.3
2015-May-26 22:23N 29°56' W 090°08'0 0.4
2015-May-26 21:29N 29°55' W 090°08'1 0.6
2015-May-26 19:33N 29°56' W 090°09'  

Dump ship's entire track history